»·PEaware :: SWA3590 KPHX-KHOU

SWA3590 :: KPHX-KHOU

FLIGHT INFORMATION

Flight Status: Arrived
Operator:
Southwest Airlines
More flights by this operator :: More flights under this callsign
Pilot: Drew L. (13237)
Aircraft: BOEING 737-800
(B738)
More flights by this aircraft type
Origin: KPHX Phoenix Sky Harbor Intl
United States
Destination: KHOU Hobby
United States
More flights between these airports :: More routes between these airports
Route: +KATMN5 PHASE ELP FST SAT BELLR3
File this flight plan on PilotEdge
Remarks: PBN / A1B1C1D1S1S2 DOF / 180506 REG / N806SB EET / KZHU0111 OPR / SWA PER / C RMK / TCAS SIMBRIEF
Altitude:
(Current/Filed)
37,000ft
Speed:
(Current/Filed)
451kts
Departed: 05-May-18 08:44 PM
Arrived: 05-May-18 10:52 PM
Distance/Time
Traveled:
884nm/2:08
Distance/Time
To Go:
Arrived

Flight Plot

Page will automatically refresh every two minutes.

Flight plan parsing failed; only flown route is shown


Map Options




Map Legend


Flown Route
Filed Route
Departure Airport
Arrival Airport
Navaid (VOR, NDB)
Fix

Horizontal Profiles

Position Reports

Time Latitude Longitude Heading Altitude Ground
Speed
05-May-18 20:12 33.433413 -111.994525 35 1142ft 0kts
05-May-18 20:13 33.433413 -111.994525 35 1142ft 0kts
05-May-18 20:14 33.433413 -111.994525 35 1142ft 0kts
05-May-18 20:15 33.433413 -111.994525 35 1142ft 0kts
05-May-18 20:16 33.433413 -111.994525 35 1142ft 0kts
05-May-18 20:17 33.433413 -111.994525 35 1142ft 0kts
05-May-18 20:18 33.433413 -111.994525 35 1142ft 0kts
05-May-18 20:19 33.433413 -111.994525 35 1142ft 0kts
05-May-18 20:20 33.433413 -111.994525 35 1142ft 0kts
05-May-18 20:21 33.433413 -111.994525 35 1142ft 0kts
05-May-18 20:22 33.433413 -111.994525 35 1142ft 0kts
05-May-18 20:23 33.433413 -111.994525 35 1142ft 0kts
05-May-18 20:25 33.433413 -111.994525 35 1142ft 0kts
05-May-18 20:26 33.433413 -111.994525 35 1142ft 0kts
05-May-18 20:27 33.433413 -111.994525 35 1142ft 0kts
05-May-18 20:28 33.433413 -111.994525 35 1142ft 0kts
05-May-18 20:29 33.433413 -111.994525 35 1142ft 0kts
05-May-18 20:30 33.433413 -111.994525 35 1142ft 0kts
05-May-18 20:31 33.433413 -111.994525 35 1142ft 0kts
05-May-18 20:32 33.433413 -111.994525 35 1142ft 0kts
05-May-18 20:33 33.433156 -111.994746 29 1142ft 2kts
05-May-18 20:34 33.432823 -111.994443 264 1142ft 1kts
05-May-18 20:35 33.432824 -111.994414 266 1142ft 0kts
05-May-18 20:36 33.432824 -111.994414 266 1142ft 0kts
05-May-18 20:37 33.432824 -111.994414 266 1142ft 0kts
05-May-18 20:38 33.432765 -111.995255 252 1142ft 12kts
05-May-18 20:39 33.432135 -112.003247 270 1142ft 36kts
05-May-18 20:40 33.432144 -112.016104 269 1142ft 40kts
05-May-18 20:41 33.432107 -112.026624 253 1142ft 0kts
05-May-18 20:42 33.432107 -112.026624 253 1142ft 0kts
05-May-18 20:43 33.431968 -112.026887 220 1142ft 7kts
05-May-18 20:44 33.431054 -112.015724 90 1142ft 132kts
05-May-18 20:45 33.432292 -111.952081 85 2762ft 229kts
05-May-18 20:46 33.434774 -111.868893 107 5600ft 278kts
05-May-18 20:47 33.381841 -111.800310 134 9386ft 291kts
05-May-18 20:48 33.322630 -111.733385 135 12206ft 324kts
05-May-18 20:49 33.255944 -111.658260 135 15389ft 341kts
05-May-18 20:50 33.185685 -111.579281 134 18265ft 358kts
05-May-18 20:51 33.111582 -111.496183 134 20813ft 374kts
05-May-18 20:52 33.042354 -111.402906 120 23110ft 384kts
05-May-18 20:53 32.983512 -111.294335 120 25223ft 397kts
05-May-18 20:54 32.924458 -111.186233 120 27061ft 408kts
05-May-18 20:55 32.863146 -111.074598 120 28708ft 420kts
05-May-18 20:56 32.798884 -110.958095 121 30460ft 425kts
05-May-18 20:57 32.734262 -110.841415 121 32261ft 423kts
05-May-18 20:58 32.669725 -110.725318 121 33860ft 422kts
05-May-18 20:59 32.624623 -110.599593 101 35318ft 414kts
05-May-18 21:00 32.596593 -110.468448 102 36619ft 411kts
05-May-18 21:01 32.567463 -110.335359 102 37034ft 430kts
05-May-18 21:02 32.536332 -110.194871 102 37073ft 450kts
05-May-18 21:03 32.504359 -110.051969 102 37109ft 450kts
05-May-18 21:04 32.472138 -109.908955 103 37109ft 450kts
05-May-18 21:05 32.439770 -109.766217 102 37109ft 450kts
05-May-18 21:06 32.419027 -109.621334 95 37110ft 448kts
05-May-18 21:07 32.401086 -109.475265 96 37110ft 448kts
05-May-18 21:08 32.382753 -109.330129 96 37109ft 448kts
05-May-18 21:09 32.364122 -109.184978 96 37109ft 448kts
05-May-18 21:10 32.340331 -109.039415 101 37111ft 460kts
05-May-18 21:11 32.311482 -108.891255 102 37155ft 463kts
05-May-18 21:12 32.282162 -108.743630 102 37290ft 463kts
05-May-18 21:13 32.252815 -108.595361 102 37319ft 463kts
05-May-18 21:14 32.223796 -108.447842 102 37320ft 462kts
05-May-18 21:15 32.196794 -108.309828 102 37320ft 463kts
05-May-18 21:16 32.168132 -108.162360 102 37302ft 463kts
05-May-18 21:17 32.139559 -108.014571 102 37252ft 462kts
05-May-18 21:18 32.111319 -107.867663 101 37241ft 463kts
05-May-18 21:19 32.083063 -107.719754 101 37239ft 463kts
05-May-18 21:20 32.055082 -107.572412 101 37238ft 463kts
05-May-18 21:21 32.027131 -107.424376 101 37249ft 463kts
05-May-18 21:22 31.999450 -107.276850 101 37264ft 463kts
05-May-18 21:23 31.971926 -107.129244 101 37264ft 463kts
05-May-18 21:24 31.944499 -106.981439 101 37262ft 465kts
05-May-18 21:25 31.916742 -106.830917 101 37247ft 477kts
05-May-18 21:26 31.889163 -106.680500 101 37220ft 479kts
05-May-18 21:27 31.861357 -106.527976 101 37209ft 478kts
05-May-18 21:28 31.833617 -106.375008 101 37212ft 479kts
05-May-18 21:29 31.803270 -106.223348 107 37214ft 476kts
05-May-18 21:30 31.763126 -106.074598 108 37209ft 480kts
05-May-18 21:31 31.722684 -105.926365 107 37209ft 477kts
05-May-18 21:32 31.682356 -105.777847 107 37210ft 479kts
05-May-18 21:33 31.642985 -105.632310 107 37216ft 478kts
05-May-18 21:34 31.602960 -105.483665 107 37212ft 479kts
05-May-18 21:35 31.563124 -105.335097 107 37211ft 478kts
05-May-18 21:36 31.523474 -105.186493 107 37217ft 479kts
05-May-18 21:37 31.484013 -105.037959 107 37224ft 481kts
05-May-18 21:38 31.443897 -104.886419 107 37226ft 492kts
05-May-18 21:39 31.403498 -104.733117 107 37218ft 493kts
05-May-18 21:40 31.363419 -104.580347 107 37228ft 493kts
05-May-18 21:41 31.323350 -104.426941 106 37228ft 494kts
05-May-18 21:42 31.283464 -104.273449 107 37221ft 493kts
05-May-18 21:43 31.243973 -104.120626 107 37226ft 493kts
05-May-18 21:44 31.204533 -103.967565 107 37220ft 493kts
05-May-18 21:45 31.165320 -103.814738 107 37225ft 494kts
05-May-18 21:46 31.126139 -103.661494 107 37231ft 492kts
05-May-18 21:47 31.087252 -103.508571 106 37221ft 493kts
05-May-18 21:48 31.048542 -103.355695 106 37225ft 494kts
05-May-18 21:49 31.009927 -103.202364 107 37245ft 498kts
05-May-18 21:50 30.970628 -103.045610 108 37248ft 511kts
05-May-18 21:51 30.928741 -102.886742 111 37247ft 519kts
05-May-18 21:52 30.881344 -102.729963 113 37252ft 522kts
05-May-18 21:53 30.832859 -102.571364 114 37254ft 522kts
05-May-18 21:54 30.784533 -102.412562 113 37256ft 522kts
05-May-18 21:55 30.736536 -102.253952 114 37242ft 520kts
05-May-18 21:56 30.688652 -102.095243 113 37256ft 521kts
05-May-18 21:57 30.640980 -101.936592 113 37280ft 521kts
05-May-18 21:58 30.593491 -101.777891 113 37278ft 521kts
05-May-18 21:59 30.546242 -101.619392 113 37280ft 521kts
05-May-18 21:59 30.507027 -101.487303 113 37284ft 522kts
05-May-18 22:01 30.452226 -101.301862 113 37264ft 521kts
05-May-18 22:02 30.405772 -101.143837 113 37271ft 520kts
05-May-18 22:03 30.359336 -100.985410 113 37276ft 522kts
05-May-18 22:04 30.312708 -100.825722 112 37283ft 527kts
05-May-18 22:05 30.265944 -100.664799 112 37290ft 529kts
05-May-18 22:05 30.227247 -100.531151 111 37293ft 529kts
05-May-18 22:06 30.180743 -100.369943 111 37303ft 529kts
05-May-18 22:07 30.138308 -100.221915 112 37287ft 529kts
05-May-18 22:08 30.092309 -100.061044 112 37290ft 528kts
05-May-18 22:09 30.046697 -99.900961 111 37293ft 529kts
05-May-18 22:10 30.000870 -99.739453 111 37279ft 529kts
05-May-18 22:11 29.955525 -99.578965 111 37247ft 529kts
05-May-18 22:12 29.910168 -99.417786 111 37248ft 529kts
05-May-18 22:13 29.874377 -99.289995 111 37231ft 528kts
05-May-18 22:14 29.830253 -99.131703 111 37235ft 528kts
05-May-18 22:15 29.785536 -98.970937 111 37238ft 533kts
05-May-18 22:16 29.741003 -98.810239 111 37231ft 535kts
05-May-18 22:17 29.696509 -98.649057 111 37213ft 534kts
05-May-18 22:18 29.652080 -98.487666 110 37211ft 535kts
05-May-18 22:19 29.622159 -98.322738 101 37195ft 539kts
05-May-18 22:20 29.596778 -98.154374 101 37197ft 538kts
05-May-18 22:21 29.570987 -97.985636 101 37189ft 538kts
05-May-18 22:22 29.544828 -97.816410 101 37191ft 539kts
05-May-18 22:23 29.518526 -97.648067 102 37199ft 539kts
05-May-18 22:24 29.491964 -97.479694 102 37207ft 534kts
05-May-18 22:25 29.466191 -97.317628 102 34981ft 526kts
05-May-18 22:26 29.428687 -97.167728 122 31350ft 530kts
05-May-18 22:27 29.330093 -97.047786 143 27628ft 522kts
05-May-18 22:28 29.221023 -96.945553 143 24870ft 500kts
05-May-18 22:29 29.116354 -96.849015 132 22086ft 474kts
05-May-18 22:30 29.075320 -96.716200 93 19340ft 437kts
05-May-18 22:31 29.106784 -96.595398 58 17308ft 383kts
05-May-18 22:32 29.153095 -96.488240 59 15729ft 370kts
05-May-18 22:33 29.197757 -96.384740 59 14154ft 359kts
05-May-18 22:34 29.241064 -96.284120 61 12574ft 351kts
05-May-18 22:35 29.283480 -96.185259 61 11271ft 331kts
05-May-18 22:36 29.320287 -96.099221 61 10975ft 280kts
05-May-18 22:37 29.364842 -96.028183 49 10667ft 275kts
05-May-18 22:38 29.413028 -95.958784 49 9362ft 276kts
05-May-18 22:39 29.459336 -95.891713 50 8384ft 259kts
05-May-18 22:41 29.473206 -95.813508 84 7402ft 249kts
05-May-18 22:42 29.476787 -95.736304 84 6417ft 238kts
05-May-18 22:43 29.480123 -95.663468 85 5622ft 220kts
05-May-18 22:44 29.477593 -95.594714 93 4916ft 215kts
05-May-18 22:45 29.472109 -95.526449 94 4315ft 213kts
05-May-18 22:46 29.479186 -95.462705 45 4029ft 209kts
05-May-18 22:47 29.521179 -95.415407 43 3336ft 214kts
05-May-18 22:48 29.561468 -95.371095 43 2220ft 186kts
05-May-18 22:49 29.593839 -95.335199 43 1305ft 145kts
05-May-18 22:50 29.621835 -95.304350 44 520ft 139kts
05-May-18 22:51 29.647455 -95.276118 44 52ft 71kts
05-May-18 22:52 29.652279 -95.272598 222 52ft 10kts
05-May-18 22:53 29.652049 -95.275657 42 52ft 3kts
05-May-18 22:54 29.652222 -95.275486 40 52ft 0kts
05-May-18 22:55 29.652222 -95.275486 40 52ft 0kts

Navigation Log

Ident Type
Flight plan parsing failed, navigation log unavailable